sensor_id;sensor_type;location;lat;lon;timestamp;P1;durP1;ratioP1;P2;durP2;ratioP2
48516;SDS011;34310;51.904;4.256;2023-04-03T00:00:55;3.40;;;1.50;;
48516;SDS011;34310;51.904;4.256;2023-04-03T00:03:23;2.10;;;1.20;;
48516;SDS011;34310;51.904;4.256;2023-04-03T00:05:50;1.60;;;1.30;;
48516;SDS011;34310;51.904;4.256;2023-04-03T00:08:18;1.40;;;1.10;;
48516;SDS011;34310;51.904;4.256;2023-04-03T00:10:45;1.38;;;1.27;;
48516;SDS011;34310;51.904;4.256;2023-04-03T00:13:13;1.92;;;1.42;;
48516;SDS011;34310;51.904;4.256;2023-04-03T00:15:41;3.08;;;1.40;;
48516;SDS011;34310;51.904;4.256;2023-04-03T00:18:09;1.73;;;1.35;;
48516;SDS011;34310;51.904;4.256;2023-04-03T00:20:36;1.25;;;1.15;;
48516;SDS011;34310;51.904;4.256;2023-04-03T00:23:04;1.25;;;1.15;;
48516;SDS011;34310;51.904;4.256;2023-04-03T00:25:31;1.38;;;1.08;;
48516;SDS011;34310;51.904;4.256;2023-04-03T00:27:59;1.48;;;1.20;;
48516;SDS011;34310;51.904;4.256;2023-04-03T00:30:27;2.08;;;1.10;;
48516;SDS011;34310;51.904;4.256;2023-04-03T00:32:54;1.55;;;1.30;;
48516;SDS011;34310;51.904;4.256;2023-04-03T00:35:22;1.80;;;1.23;;
48516;SDS011;34310;51.904;4.256;2023-04-03T00:37:51;1.90;;;1.30;;
48516;SDS011;34310;51.904;4.256;2023-04-03T00:40:20;1.10;;;1.00;;
48516;SDS011;34310;51.904;4.256;2023-04-03T00:42:51;1.17;;;0.95;;
48516;SDS011;34310;51.904;4.256;2023-04-03T00:45:36;1.30;;;1.20;;
48516;SDS011;34310;51.904;4.256;2023-04-03T00:48:07;1.45;;;1.20;;
48516;SDS011;34310;51.904;4.256;2023-04-03T00:50:39;1.70;;;1.20;;
48516;SDS011;34310;51.904;4.256;2023-04-03T00:53:10;1.20;;;0.90;;
48516;SDS011;34310;51.904;4.256;2023-04-03T00:55:44;1.45;;;1.20;;
48516;SDS011;34310;51.904;4.256;2023-04-03T00:58:13;1.23;;;1.10;;
48516;SDS011;34310;51.904;4.256;2023-04-03T01:00:44;1.23;;;1.08;;
48516;SDS011;34310;51.904;4.256;2023-04-03T01:03:17;1.23;;;1.00;;
48516;SDS011;34310;51.904;4.256;2023-04-03T01:05:45;1.13;;;1.02;;
48516;SDS011;34310;51.904;4.256;2023-04-03T01:08:12;1.58;;;1.10;;
48516;SDS011;34310;51.904;4.256;2023-04-03T01:10:40;1.02;;;0.98;;
48516;SDS011;34310;51.904;4.256;2023-04-03T01:13:17;1.52;;;1.10;;
48516;SDS011;34310;51.904;4.256;2023-04-03T01:16:06;0.77;;;0.77;;
48516;SDS011;34310;51.904;4.256;2023-04-03T01:18:34;1.20;;;1.10;;
48516;SDS011;34310;51.904;4.256;2023-04-03T01:24:03;1.95;;;1.10;;
48516;SDS011;34310;51.904;4.256;2023-04-03T01:26:34;1.20;;;1.10;;
48516;SDS011;34310;51.904;4.256;2023-04-03T01:29:02;1.20;;;1.00;;
48516;SDS011;34310;51.904;4.256;2023-04-03T01:34:11;1.30;;;1.00;;
48516;SDS011;34310;51.904;4.256;2023-04-03T01:36:39;1.55;;;1.10;;
48516;SDS011;34310;51.904;4.256;2023-04-03T01:39:07;1.45;;;0.85;;
48516;SDS011;34310;51.904;4.256;2023-04-03T01:41:34;1.58;;;1.20;;
48516;SDS011;34310;51.904;4.256;2023-04-03T01:44:02;1.52;;;1.10;;
48516;SDS011;34310;51.904;4.256;2023-04-03T01:46:30;1.20;;;1.10;;
48516;SDS011;34310;51.904;4.256;2023-04-03T01:48:57;1.30;;;1.00;;
48516;SDS011;34310;51.904;4.256;2023-04-03T01:51:25;1.63;;;1.10;;
48516;SDS011;34310;51.904;4.256;2023-04-03T01:53:52;1.08;;;0.95;;
48516;SDS011;34310;51.904;4.256;2023-04-03T01:56:20;2.47;;;0.95;;
48516;SDS011;34310;51.904;4.256;2023-04-03T01:58:47;2.05;;;1.10;;
48516;SDS011;34310;51.904;4.256;2023-04-03T02:01:14;1.13;;;1.00;;
48516;SDS011;34310;51.904;4.256;2023-04-03T02:03:42;1.70;;;1.00;;
48516;SDS011;34310;51.904;4.256;2023-04-03T02:06:09;1.08;;;0.98;;
48516;SDS011;34310;51.904;4.256;2023-04-03T02:08:38;1.35;;;0.95;;
48516;SDS011;34310;51.904;4.256;2023-04-03T02:11:06;1.85;;;1.02;;
48516;SDS011;34310;51.904;4.256;2023-04-03T02:13:33;1.10;;;1.00;;
48516;SDS011;34310;51.904;4.256;2023-04-03T02:16:08;1.65;;;1.13;;
48516;SDS011;34310;51.904;4.256;2023-04-03T02:18:36;1.85;;;1.10;;
48516;SDS011;34310;51.904;4.256;2023-04-03T02:21:04;1.75;;;1.08;;
48516;SDS011;34310;51.904;4.256;2023-04-03T02:23:31;1.10;;;1.00;;
48516;SDS011;34310;51.904;4.256;2023-04-03T02:26:03;1.27;;;1.00;;
48516;SDS011;34310;51.904;4.256;2023-04-03T02:28:32;1.20;;;1.10;;
48516;SDS011;34310;51.904;4.256;2023-04-03T02:31:00;1.10;;;1.00;;
48516;SDS011;34310;51.904;4.256;2023-04-03T02:33:28;1.45;;;1.10;;
48516;SDS011;34310;51.904;4.256;2023-04-03T02:35:57;1.42;;;1.13;;
48516;SDS011;34310;51.904;4.256;2023-04-03T02:38:24;1.15;;;0.80;;
48516;SDS011;34310;51.904;4.256;2023-04-03T02:40:52;1.50;;;1.00;;
48516;SDS011;34310;51.904;4.256;2023-04-03T02:43:19;1.23;;;0.93;;
48516;SDS011;34310;51.904;4.256;2023-04-03T02:45:46;1.35;;;1.00;;
48516;SDS011;34310;51.904;4.256;2023-04-03T02:48:14;1.58;;;1.02;;
48516;SDS011;34310;51.904;4.256;2023-04-03T02:50:42;1.65;;;1.00;;
48516;SDS011;34310;51.904;4.256;2023-04-03T02:53:10;2.38;;;1.10;;
48516;SDS011;34310;51.904;4.256;2023-04-03T02:55:37;0.95;;;0.80;;
48516;SDS011;34310;51.904;4.256;2023-04-03T02:58:04;1.30;;;0.98;;
48516;SDS011;34310;51.904;4.256;2023-04-03T03:00:35;1.30;;;1.10;;
48516;SDS011;34310;51.904;4.256;2023-04-03T03:03:02;1.20;;;1.10;;
48516;SDS011;34310;51.904;4.256;2023-04-03T03:05:30;2.08;;;1.13;;
48516;SDS011;34310;51.904;4.256;2023-04-03T03:07:58;1.27;;;0.98;;
48516;SDS011;34310;51.904;4.256;2023-04-03T03:10:25;0.90;;;0.90;;
48516;SDS011;34310;51.904;4.256;2023-04-03T03:12:53;1.52;;;0.90;;
48516;SDS011;34310;51.904;4.256;2023-04-03T03:15:20;1.00;;;0.90;;
48516;SDS011;34310;51.904;4.256;2023-04-03T03:17:47;1.50;;;1.00;;
48516;SDS011;34310;51.904;4.256;2023-04-03T03:20:15;1.60;;;1.20;;
48516;SDS011;34310;51.904;4.256;2023-04-03T03:22:43;0.73;;;0.73;;
48516;SDS011;34310;51.904;4.256;2023-04-03T03:25:10;1.20;;;1.00;;
48516;SDS011;34310;51.904;4.256;2023-04-03T03:27:37;1.42;;;1.08;;
48516;SDS011;34310;51.904;4.256;2023-04-03T03:30:05;1.23;;;0.90;;
48516;SDS011;34310;51.904;4.256;2023-04-03T03:32:32;1.35;;;0.93;;
48516;SDS011;34310;51.904;4.256;2023-04-03T03:35:00;1.23;;;1.10;;
48516;SDS011;34310;51.904;4.256;2023-04-03T03:37:28;1.65;;;1.20;;
48516;SDS011;34310;51.904;4.256;2023-04-03T03:39:55;1.55;;;0.95;;
48516;SDS011;34310;51.904;4.256;2023-04-03T03:42:23;1.63;;;1.15;;
48516;SDS011;34310;51.904;4.256;2023-04-03T03:44:50;1.92;;;1.50;;
48516;SDS011;34310;51.904;4.256;2023-04-03T03:47:18;1.17;;;1.08;;
48516;SDS011;34310;51.904;4.256;2023-04-03T03:49:45;1.10;;;1.00;;
48516;SDS011;34310;51.904;4.256;2023-04-03T03:52:12;2.30;;;1.00;;
48516;SDS011;34310;51.904;4.256;2023-04-03T03:54:40;2.88;;;1.25;;
48516;SDS011;34310;51.904;4.256;2023-04-03T03:57:07;1.70;;;1.20;;
48516;SDS011;34310;51.904;4.256;2023-04-03T03:59:34;0.82;;;0.82;;
48516;SDS011;34310;51.904;4.256;2023-04-03T04:02:02;1.02;;;1.00;;
48516;SDS011;34310;51.904;4.256;2023-04-03T04:04:29;2.63;;;1.10;;
48516;SDS011;34310;51.904;4.256;2023-04-03T04:06:57;2.20;;;1.00;;
48516;SDS011;34310;51.904;4.256;2023-04-03T04:09:26;0.80;;;0.80;;
48516;SDS011;34310;51.904;4.256;2023-04-03T04:11:53;1.38;;;0.93;;
48516;SDS011;34310;51.904;4.256;2023-04-03T04:14:21;1.00;;;0.90;;
48516;SDS011;34310;51.904;4.256;2023-04-03T04:16:48;1.77;;;1.00;;
48516;SDS011;34310;51.904;4.256;2023-04-03T04:19:16;0.98;;;0.88;;
48516;SDS011;34310;51.904;4.256;2023-04-03T04:21:43;1.27;;;1.17;;
48516;SDS011;34310;51.904;4.256;2023-04-03T04:24:10;0.98;;;0.90;;
48516;SDS011;34310;51.904;4.256;2023-04-03T04:26:38;1.20;;;1.10;;
48516;SDS011;34310;51.904;4.256;2023-04-03T04:29:05;1.02;;;0.88;;
48516;SDS011;34310;51.904;4.256;2023-04-03T04:31:32;1.63;;;0.88;;
48516;SDS011;34310;51.904;4.256;2023-04-03T04:34:00;1.83;;;1.10;;
48516;SDS011;34310;51.904;4.256;2023-04-03T04:36:27;1.77;;;1.33;;
48516;SDS011;34310;51.904;4.256;2023-04-03T04:38:54;1.75;;;1.00;;
48516;SDS011;34310;51.904;4.256;2023-04-03T04:41:23;1.30;;;1.10;;
48516;SDS011;34310;51.904;4.256;2023-04-03T04:43:51;1.45;;;1.17;;
48516;SDS011;34310;51.904;4.256;2023-04-03T04:46:18;1.83;;;1.00;;
48516;SDS011;34310;51.904;4.256;2023-04-03T04:48:46;1.40;;;0.95;;
48516;SDS011;34310;51.904;4.256;2023-04-03T04:51:14;1.33;;;1.17;;
48516;SDS011;34310;51.904;4.256;2023-04-03T04:53:41;1.30;;;0.93;;
48516;SDS011;34310;51.904;4.256;2023-04-03T04:56:09;1.40;;;1.10;;
48516;SDS011;34310;51.904;4.256;2023-04-03T04:58:37;1.40;;;1.20;;
48516;SDS011;34310;51.904;4.256;2023-04-03T05:01:05;1.40;;;1.10;;
48516;SDS011;34310;51.904;4.256;2023-04-03T05:03:34;1.83;;;1.30;;
48516;SDS011;34310;51.904;4.256;2023-04-03T05:06:02;1.20;;;1.10;;
48516;SDS011;34310;51.904;4.256;2023-04-03T05:08:29;1.17;;;1.02;;
48516;SDS011;34310;51.904;4.256;2023-04-03T05:10:57;2.40;;;1.33;;
48516;SDS011;34310;51.904;4.256;2023-04-03T05:13:24;1.73;;;1.30;;
48516;SDS011;34310;51.904;4.256;2023-04-03T05:15:52;1.13;;;1.02;;
48516;SDS011;34310;51.904;4.256;2023-04-03T05:18:19;1.67;;;1.13;;
48516;SDS011;34310;51.904;4.256;2023-04-03T05:20:48;1.40;;;1.20;;
48516;SDS011;34310;51.904;4.256;2023-04-03T05:23:16;1.08;;;0.98;;
48516;SDS011;34310;51.904;4.256;2023-04-03T05:25:44;1.50;;;1.40;;
48516;SDS011;34310;51.904;4.256;2023-04-03T05:28:13;2.25;;;1.35;;
48516;SDS011;34310;51.904;4.256;2023-04-03T05:30:40;1.70;;;1.42;;
48516;SDS011;34310;51.904;4.256;2023-04-03T05:33:08;3.67;;;1.20;;
48516;SDS011;34310;51.904;4.256;2023-04-03T05:35:36;2.15;;;1.70;;
48516;SDS011;34310;51.904;4.256;2023-04-03T05:38:08;1.30;;;1.20;;
48516;SDS011;34310;51.904;4.256;2023-04-03T05:40:35;1.38;;;1.23;;
48516;SDS011;34310;51.904;4.256;2023-04-03T05:43:03;2.00;;;1.50;;
48516;SDS011;34310;51.904;4.256;2023-04-03T05:45:30;1.58;;;1.35;;
48516;SDS011;34310;51.904;4.256;2023-04-03T05:47:58;2.30;;;1.63;;
48516;SDS011;34310;51.904;4.256;2023-04-03T05:50:26;1.20;;;1.10;;
48516;SDS011;34310;51.904;4.256;2023-04-03T05:52:55;1.65;;;1.20;;
48516;SDS011;34310;51.904;4.256;2023-04-03T05:55:24;1.40;;;1.30;;
48516;SDS011;34310;51.904;4.256;2023-04-03T05:57:52;1.42;;;1.27;;
48516;SDS011;34310;51.904;4.256;2023-04-03T06:00:19;1.90;;;1.40;;
48516;SDS011;34310;51.904;4.256;2023-04-03T06:02:47;1.60;;;1.40;;
48516;SDS011;34310;51.904;4.256;2023-04-03T06:05:14;3.03;;;1.50;;
48516;SDS011;34310;51.904;4.256;2023-04-03T06:07:42;2.42;;;1.60;;
48516;SDS011;34310;51.904;4.256;2023-04-03T06:10:11;2.30;;;1.33;;
48516;SDS011;34310;51.904;4.256;2023-04-03T06:12:39;2.53;;;1.60;;
48516;SDS011;34310;51.904;4.256;2023-04-03T06:15:06;3.55;;;1.67;;
48516;SDS011;34310;51.904;4.256;2023-04-03T06:17:36;2.08;;;1.60;;
48516;SDS011;34310;51.904;4.256;2023-04-03T06:20:04;1.83;;;1.50;;
48516;SDS011;34310;51.904;4.256;2023-04-03T06:22:32;4.90;;;1.65;;
48516;SDS011;34310;51.904;4.256;2023-04-03T06:24:59;5.15;;;1.80;;
48516;SDS011;34310;51.904;4.256;2023-04-03T06:27:27;1.90;;;1.40;;
48516;SDS011;34310;51.904;4.256;2023-04-03T06:29:54;2.90;;;1.50;;
48516;SDS011;34310;51.904;4.256;2023-04-03T06:32:21;3.63;;;1.92;;
48516;SDS011;34310;51.904;4.256;2023-04-03T06:34:49;2.78;;;1.60;;
48516;SDS011;34310;51.904;4.256;2023-04-03T06:37:17;2.15;;;1.52;;
48516;SDS011;34310;51.904;4.256;2023-04-03T06:39:47;3.55;;;1.90;;
48516;SDS011;34310;51.904;4.256;2023-04-03T06:42:15;2.85;;;1.75;;
48516;SDS011;34310;51.904;4.256;2023-04-03T06:44:42;3.67;;;1.88;;
48516;SDS011;34310;51.904;4.256;2023-04-03T06:47:11;2.35;;;1.50;;
48516;SDS011;34310;51.904;4.256;2023-04-03T06:49:41;5.80;;;2.03;;
48516;SDS011;34310;51.904;4.256;2023-04-03T06:52:08;4.38;;;1.52;;
48516;SDS011;34310;51.904;4.256;2023-04-03T06:54:38;5.85;;;1.65;;
48516;SDS011;34310;51.904;4.256;2023-04-03T06:57:06;3.75;;;1.65;;
48516;SDS011;34310;51.904;4.256;2023-04-03T06:59:34;4.53;;;1.52;;
48516;SDS011;34310;51.904;4.256;2023-04-03T07:02:03;2.97;;;1.85;;
48516;SDS011;34310;51.904;4.256;2023-04-03T07:04:30;3.40;;;1.90;;
48516;SDS011;34310;51.904;4.256;2023-04-03T07:06:58;2.85;;;1.90;;
48516;SDS011;34310;51.904;4.256;2023-04-03T07:09:25;3.03;;;1.65;;
48516;SDS011;34310;51.904;4.256;2023-04-03T07:11:53;5.40;;;1.75;;
48516;SDS011;34310;51.904;4.256;2023-04-03T07:14:20;4.07;;;2.08;;
48516;SDS011;34310;51.904;4.256;2023-04-03T07:16:47;4.18;;;1.70;;
48516;SDS011;34310;51.904;4.256;2023-04-03T07:19:15;3.15;;;1.85;;
48516;SDS011;34310;51.904;4.256;2023-04-03T07:21:44;4.70;;;1.70;;
48516;SDS011;34310;51.904;4.256;2023-04-03T07:24:12;2.65;;;1.67;;
48516;SDS011;34310;51.904;4.256;2023-04-03T07:26:42;3.28;;;1.60;;
48516;SDS011;34310;51.904;4.256;2023-04-03T07:29:11;3.90;;;1.75;;
48516;SDS011;34310;51.904;4.256;2023-04-03T07:31:39;3.55;;;1.70;;
48516;SDS011;34310;51.904;4.256;2023-04-03T07:34:07;2.70;;;1.70;;
48516;SDS011;34310;51.904;4.256;2023-04-03T07:36:35;2.25;;;1.67;;
48516;SDS011;34310;51.904;4.256;2023-04-03T07:39:02;4.45;;;2.10;;
48516;SDS011;34310;51.904;4.256;2023-04-03T07:41:30;3.97;;;1.63;;
48516;SDS011;34310;51.904;4.256;2023-04-03T07:43:57;2.63;;;1.50;;
48516;SDS011;34310;51.904;4.256;2023-04-03T07:46:25;4.32;;;1.70;;
48516;SDS011;34310;51.904;4.256;2023-04-03T07:48:55;2.28;;;1.60;;
48516;SDS011;34310;51.904;4.256;2023-04-03T07:51:23;3.72;;;1.38;;
48516;SDS011;34310;51.904;4.256;2023-04-03T07:53:52;3.83;;;1.60;;
48516;SDS011;34310;51.904;4.256;2023-04-03T07:56:20;5.38;;;1.52;;
48516;SDS011;34310;51.904;4.256;2023-04-03T07:58:47;3.35;;;1.85;;
48516;SDS011;34310;51.904;4.256;2023-04-03T08:01:14;4.40;;;1.80;;
48516;SDS011;34310;51.904;4.256;2023-04-03T08:03:42;4.30;;;1.65;;
48516;SDS011;34310;51.904;4.256;2023-04-03T08:06:09;3.42;;;1.80;;
48516;SDS011;34310;51.904;4.256;2023-04-03T08:08:41;4.13;;;1.70;;
48516;SDS011;34310;51.904;4.256;2023-04-03T08:11:09;2.90;;;1.55;;
48516;SDS011;34310;51.904;4.256;2023-04-03T08:13:37;3.97;;;1.42;;
48516;SDS011;34310;51.904;4.256;2023-04-03T08:16:08;2.35;;;1.60;;
48516;SDS011;34310;51.904;4.256;2023-04-03T08:18:37;2.03;;;1.60;;
48516;SDS011;34310;51.904;4.256;2023-04-03T08:21:05;2.50;;;1.80;;
48516;SDS011;34310;51.904;4.256;2023-04-03T08:23:37;3.33;;;1.60;;
48516;SDS011;34310;51.904;4.256;2023-04-03T08:26:09;2.10;;;1.60;;
48516;SDS011;34310;51.904;4.256;2023-04-03T08:28:41;2.85;;;2.00;;
48516;SDS011;34310;51.904;4.256;2023-04-03T08:31:10;3.22;;;1.60;;
48516;SDS011;34310;51.904;4.256;2023-04-03T08:33:40;3.08;;;1.90;;
48516;SDS011;34310;51.904;4.256;2023-04-03T08:36:14;2.15;;;1.60;;
48516;SDS011;34310;51.904;4.256;2023-04-03T08:38:44;3.03;;;1.70;;
48516;SDS011;34310;51.904;4.256;2023-04-03T08:46:18;2.47;;;1.60;;
48516;SDS011;34310;51.904;4.256;2023-04-03T08:48:49;2.58;;;1.40;;
48516;SDS011;34310;51.904;4.256;2023-04-03T08:51:18;2.08;;;1.50;;
48516;SDS011;34310;51.904;4.256;2023-04-03T08:54:01;2.60;;;1.50;;
48516;SDS011;34310;51.904;4.256;2023-04-03T08:56:38;2.70;;;1.63;;
48516;SDS011;34310;51.904;4.256;2023-04-03T08:59:10;2.28;;;1.40;;
48516;SDS011;34310;51.904;4.256;2023-04-03T09:01:44;3.10;;;1.70;;
48516;SDS011;34310;51.904;4.256;2023-04-03T09:04:14;2.10;;;1.58;;
48516;SDS011;34310;51.904;4.256;2023-04-03T09:06:48;3.08;;;1.60;;
48516;SDS011;34310;51.904;4.256;2023-04-03T09:12:12;2.28;;;1.35;;
48516;SDS011;34310;51.904;4.256;2023-04-03T09:23:03;2.47;;;1.42;;
48516;SDS011;34310;51.904;4.256;2023-04-03T09:25:46;2.42;;;1.42;;
48516;SDS011;34310;51.904;4.256;2023-04-03T09:28:16;3.35;;;1.30;;
48516;SDS011;34310;51.904;4.256;2023-04-03T09:30:43;2.65;;;1.52;;
48516;SDS011;34310;51.904;4.256;2023-04-03T09:33:10;4.10;;;1.48;;
48516;SDS011;34310;51.904;4.256;2023-04-03T09:35:39;1.98;;;1.40;;
48516;SDS011;34310;51.904;4.256;2023-04-03T09:43:33;2.47;;;1.10;;
48516;SDS011;34310;51.904;4.256;2023-04-03T09:46:19;2.28;;;1.42;;
48516;SDS011;34310;51.904;4.256;2023-04-03T09:49:00;1.80;;;1.20;;
48516;SDS011;34310;51.904;4.256;2023-04-03T09:51:35;2.17;;;1.13;;
48516;SDS011;34310;51.904;4.256;2023-04-03T09:57:01;3.55;;;1.40;;
48516;SDS011;34310;51.904;4.256;2023-04-03T09:59:33;1.50;;;1.10;;
48516;SDS011;34310;51.904;4.256;2023-04-03T10:02:43;1.77;;;1.10;;
48516;SDS011;34310;51.904;4.256;2023-04-03T10:04:58;2.42;;;1.10;;
48516;SDS011;34310;51.904;4.256;2023-04-03T10:07:36;1.58;;;1.02;;
48516;SDS011;34310;51.904;4.256;2023-04-03T10:10:20;1.50;;;1.10;;
48516;SDS011;34310;51.904;4.256;2023-04-03T10:13:04;2.53;;;0.90;;
48516;SDS011;34310;51.904;4.256;2023-04-03T10:15:56;4.35;;;1.10;;
48516;SDS011;34310;51.904;4.256;2023-04-03T10:18:40;2.40;;;0.93;;
48516;SDS011;34310;51.904;4.256;2023-04-03T10:21:29;1.30;;;1.05;;
48516;SDS011;34310;51.904;4.256;2023-04-03T10:24:14;1.67;;;1.05;;
48516;SDS011;34310;51.904;4.256;2023-04-03T10:29:22;1.52;;;0.98;;
48516;SDS011;34310;51.904;4.256;2023-04-03T10:34:50;3.15;;;1.20;;
48516;SDS011;34310;51.904;4.256;2023-04-03T10:37:33;2.22;;;1.00;;
48516;SDS011;34310;51.904;4.256;2023-04-03T10:42:53;1.65;;;1.00;;
48516;SDS011;34310;51.904;4.256;2023-04-03T10:48:15;1.88;;;0.80;;
48516;SDS011;34310;51.904;4.256;2023-04-03T10:53:24;1.45;;;0.80;;
48516;SDS011;34310;51.904;4.256;2023-04-03T10:56:05;2.83;;;0.90;;
48516;SDS011;34310;51.904;4.256;2023-04-03T10:58:36;3.03;;;0.90;;
48516;SDS011;34310;51.904;4.256;2023-04-03T11:01:15;2.03;;;0.80;;
48516;SDS011;34310;51.904;4.256;2023-04-03T11:03:59;1.25;;;0.80;;
48516;SDS011;34310;51.904;4.256;2023-04-03T11:06:41;3.22;;;1.00;;
48516;SDS011;34310;51.904;4.256;2023-04-03T11:09:22;3.83;;;1.00;;
48516;SDS011;34310;51.904;4.256;2023-04-03T11:12:00;1.15;;;0.90;;
48516;SDS011;34310;51.904;4.256;2023-04-03T11:14:37;1.35;;;0.90;;
48516;SDS011;34310;51.904;4.256;2023-04-03T11:19:45;2.15;;;0.90;;
48516;SDS011;34310;51.904;4.256;2023-04-03T11:22:39;2.58;;;0.82;;
48516;SDS011;34310;51.904;4.256;2023-04-03T11:27:58;0.88;;;0.60;;
48516;SDS011;34310;51.904;4.256;2023-04-03T11:30:34;1.10;;;0.70;;
48516;SDS011;34310;51.904;4.256;2023-04-03T11:33:15;3.35;;;0.85;;
48516;SDS011;34310;51.904;4.256;2023-04-03T11:35:51;2.90;;;0.60;;
48516;SDS011;34310;51.904;4.256;2023-04-03T11:38:26;0.95;;;0.70;;
48516;SDS011;34310;51.904;4.256;2023-04-03T11:41:02;2.08;;;0.90;;
48516;SDS011;34310;51.904;4.256;2023-04-03T11:43:33;1.02;;;0.70;;
48516;SDS011;34310;51.904;4.256;2023-04-03T11:46:06;0.93;;;0.70;;
48516;SDS011;34310;51.904;4.256;2023-04-03T11:51:02;1.25;;;0.80;;
48516;SDS011;34310;51.904;4.256;2023-04-03T11:53:55;1.48;;;0.73;;
48516;SDS011;34310;51.904;4.256;2023-04-03T11:57:22;2.22;;;0.90;;
48516;SDS011;34310;51.904;4.256;2023-04-03T12:00:55;1.33;;;0.68;;
48516;SDS011;34310;51.904;4.256;2023-04-03T12:13:40;2.28;;;0.57;;
48516;SDS011;34310;51.904;4.256;2023-04-03T12:16:28;1.10;;;0.70;;
48516;SDS011;34310;51.904;4.256;2023-04-03T12:46:45;2.72;;;0.70;;
48516;SDS011;34310;51.904;4.256;2023-04-03T12:51:52;0.85;;;0.73;;
48516;SDS011;34310;51.904;4.256;2023-04-03T12:57:10;0.55;;;0.55;;
48516;SDS011;34310;51.904;4.256;2023-04-03T12:59:38;1.15;;;0.80;;
48516;SDS011;34310;51.904;4.256;2023-04-03T13:02:17;1.25;;;0.60;;
48516;SDS011;34310;51.904;4.256;2023-04-03T13:04:53;1.15;;;0.80;;
48516;SDS011;34310;51.904;4.256;2023-04-03T13:12:34;0.60;;;0.60;;
48516;SDS011;34310;51.904;4.256;2023-04-03T13:15:19;0.65;;;0.50;;
48516;SDS011;34310;51.904;4.256;2023-04-03T13:17:49;0.98;;;0.63;;
48516;SDS011;34310;51.904;4.256;2023-04-03T13:22:55;2.28;;;0.80;;
48516;SDS011;34310;51.904;4.256;2023-04-03T13:25:35;1.58;;;0.60;;
48516;SDS011;34310;51.904;4.256;2023-04-03T13:28:07;0.90;;;0.68;;
48516;SDS011;34310;51.904;4.256;2023-04-03T13:30:39;0.90;;;0.68;;
48516;SDS011;34310;51.904;4.256;2023-04-03T13:33:23;0.90;;;0.60;;
48516;SDS011;34310;51.904;4.256;2023-04-03T13:38:44;1.00;;;0.65;;
48516;SDS011;34310;51.904;4.256;2023-04-03T13:46:49;1.52;;;0.60;;
48516;SDS011;34310;51.904;4.256;2023-04-03T13:49:43;0.63;;;0.55;;
48516;SDS011;34310;51.904;4.256;2023-04-03T13:54:55;1.75;;;0.80;;
48516;SDS011;34310;51.904;4.256;2023-04-03T13:57:25;0.80;;;0.70;;
48516;SDS011;34310;51.904;4.256;2023-04-03T13:59:54;1.35;;;0.82;;
48516;SDS011;34310;51.904;4.256;2023-04-03T14:02:22;0.90;;;0.80;;
48516;SDS011;34310;51.904;4.256;2023-04-03T14:04:58;1.85;;;1.00;;
48516;SDS011;34310;51.904;4.256;2023-04-03T14:07:28;0.73;;;0.52;;
48516;SDS011;34310;51.904;4.256;2023-04-03T14:09:57;1.27;;;0.85;;
48516;SDS011;34310;51.904;4.256;2023-04-03T14:12:27;2.08;;;0.82;;
48516;SDS011;34310;51.904;4.256;2023-04-03T14:15:12;1.38;;;0.93;;
48516;SDS011;34310;51.904;4.256;2023-04-03T14:17:50;1.33;;;0.90;;
48516;SDS011;34310;51.904;4.256;2023-04-03T14:20:20;1.00;;;0.80;;
48516;SDS011;34310;51.904;4.256;2023-04-03T14:22:49;0.60;;;0.60;;
48516;SDS011;34310;51.904;4.256;2023-04-03T14:25:18;1.23;;;0.75;;
48516;SDS011;34310;51.904;4.256;2023-04-03T14:27:47;0.82;;;0.75;;
48516;SDS011;34310;51.904;4.256;2023-04-03T14:30:23;1.42;;;0.70;;
48516;SDS011;34310;51.904;4.256;2023-04-03T14:32:53;0.85;;;0.57;;
48516;SDS011;34310;51.904;4.256;2023-04-03T14:35:21;1.02;;;0.80;;
48516;SDS011;34310;51.904;4.256;2023-04-03T14:37:49;1.15;;;0.70;;
48516;SDS011;34310;51.904;4.256;2023-04-03T14:40:35;2.20;;;0.68;;
48516;SDS011;34310;51.904;4.256;2023-04-03T14:43:02;0.90;;;0.75;;
48516;SDS011;34310;51.904;4.256;2023-04-03T14:45:31;1.30;;;0.70;;
48516;SDS011;34310;51.904;4.256;2023-04-03T14:47:59;1.15;;;0.77;;
48516;SDS011;34310;51.904;4.256;2023-04-03T14:50:26;1.20;;;0.70;;
48516;SDS011;34310;51.904;4.256;2023-04-03T14:52:55;0.80;;;0.70;;
48516;SDS011;34310;51.904;4.256;2023-04-03T14:55:25;0.70;;;0.70;;
48516;SDS011;34310;51.904;4.256;2023-04-03T14:57:53;0.90;;;0.68;;
48516;SDS011;34310;51.904;4.256;2023-04-03T15:00:21;1.15;;;0.70;;
48516;SDS011;34310;51.904;4.256;2023-04-03T15:02:49;0.73;;;0.70;;
48516;SDS011;34310;51.904;4.256;2023-04-03T15:05:17;1.85;;;0.80;;
48516;SDS011;34310;51.904;4.256;2023-04-03T15:07:50;1.20;;;0.70;;
48516;SDS011;34310;51.904;4.256;2023-04-03T15:10:28;0.90;;;0.70;;
48516;SDS011;34310;51.904;4.256;2023-04-03T15:12:57;0.80;;;0.68;;
48516;SDS011;34310;51.904;4.256;2023-04-03T15:15:26;0.70;;;0.70;;
48516;SDS011;34310;51.904;4.256;2023-04-03T15:17:56;0.98;;;0.70;;
48516;SDS011;34310;51.904;4.256;2023-04-03T15:20:25;0.68;;;0.68;;
48516;SDS011;34310;51.904;4.256;2023-04-03T15:22:54;2.15;;;0.75;;
48516;SDS011;34310;51.904;4.256;2023-04-03T15:25:23;1.55;;;0.70;;
48516;SDS011;34310;51.904;4.256;2023-04-03T15:27:52;0.70;;;0.70;;
48516;SDS011;34310;51.904;4.256;2023-04-03T15:30:20;1.33;;;0.88;;
48516;SDS011;34310;51.904;4.256;2023-04-03T15:32:48;1.08;;;0.88;;
48516;SDS011;34310;51.904;4.256;2023-04-03T15:35:16;1.13;;;0.90;;
48516;SDS011;34310;51.904;4.256;2023-04-03T15:37:44;1.55;;;1.23;;
48516;SDS011;34310;51.904;4.256;2023-04-03T15:40:11;1.40;;;1.30;;
48516;SDS011;34310;51.904;4.256;2023-04-03T15:42:39;2.35;;;1.25;;
48516;SDS011;34310;51.904;4.256;2023-04-03T15:45:07;1.83;;;1.30;;
48516;SDS011;34310;51.904;4.256;2023-04-03T15:47:34;1.70;;;1.30;;
48516;SDS011;34310;51.904;4.256;2023-04-03T15:50:02;1.83;;;1.27;;
48516;SDS011;34310;51.904;4.256;2023-04-03T15:52:32;2.38;;;1.50;;
48516;SDS011;34310;51.904;4.256;2023-04-03T15:55:00;2.08;;;1.58;;
48516;SDS011;34310;51.904;4.256;2023-04-03T15:57:28;2.90;;;1.30;;
48516;SDS011;34310;51.904;4.256;2023-04-03T16:00:00;2.00;;;1.08;;
48516;SDS011;34310;51.904;4.256;2023-04-03T16:02:29;1.85;;;1.23;;
48516;SDS011;34310;51.904;4.256;2023-04-03T16:04:56;1.45;;;1.10;;
48516;SDS011;34310;51.904;4.256;2023-04-03T16:07:25;1.52;;;1.20;;
48516;SDS011;34310;51.904;4.256;2023-04-03T16:09:52;1.75;;;1.40;;
48516;SDS011;34310;51.904;4.256;2023-04-03T16:12:19;1.95;;;1.17;;
48516;SDS011;34310;51.904;4.256;2023-04-03T16:14:47;2.03;;;1.35;;
48516;SDS011;34310;51.904;4.256;2023-04-03T16:17:14;1.33;;;1.08;;
48516;SDS011;34310;51.904;4.256;2023-04-03T16:19:41;1.88;;;1.23;;
48516;SDS011;34310;51.904;4.256;2023-04-03T16:22:09;1.90;;;1.30;;
48516;SDS011;34310;51.904;4.256;2023-04-03T16:24:36;1.50;;;1.20;;
48516;SDS011;34310;51.904;4.256;2023-04-03T16:27:04;2.33;;;1.33;;
48516;SDS011;34310;51.904;4.256;2023-04-03T16:29:31;1.13;;;1.02;;
48516;SDS011;34310;51.904;4.256;2023-04-03T16:31:58;1.65;;;1.30;;
48516;SDS011;34310;51.904;4.256;2023-04-03T16:34:26;2.42;;;1.48;;
48516;SDS011;34310;51.904;4.256;2023-04-03T16:36:56;1.65;;;1.20;;
48516;SDS011;34310;51.904;4.256;2023-04-03T16:39:23;1.75;;;1.50;;
48516;SDS011;34310;51.904;4.256;2023-04-03T16:41:51;1.95;;;1.45;;
48516;SDS011;34310;51.904;4.256;2023-04-03T16:44:18;2.20;;;1.50;;
48516;SDS011;34310;51.904;4.256;2023-04-03T16:46:45;2.83;;;1.60;;
48516;SDS011;34310;51.904;4.256;2023-04-03T16:49:13;1.88;;;1.42;;
48516;SDS011;34310;51.904;4.256;2023-04-03T16:51:41;1.55;;;1.25;;
48516;SDS011;34310;51.904;4.256;2023-04-03T16:54:09;1.95;;;1.40;;
48516;SDS011;34310;51.904;4.256;2023-04-03T16:56:37;1.52;;;1.40;;
48516;SDS011;34310;51.904;4.256;2023-04-03T16:59:05;1.77;;;1.38;;
48516;SDS011;34310;51.904;4.256;2023-04-03T17:01:33;2.42;;;1.60;;